Tavernes de la Valldigna, Spain
Current Conditions -  °F | °C
As of 1:00 PM on Wednesday 28 Jan 2015 (Local Time) from LEVC Reporting Station
Clear Clear  
Wind Chill: 59°   Ceiling: Unl
Heat Index: 59°   Visibility: 6mi
Dew Point: 32°   Wind: 5mph
Humidity: 36%   Direction: 210°SSW
Pressure: 30.18"   Gusts: NA
Location:  39.07°N, 0.27°W
Report Text: LEVC 281200Z 21004KT 150V260 CAVOK 15/M00 Q1022 NOSIG
Loading
Personal Weather Stations






























Interactive Weather Map New forecast layout! Learn more

10-Day Weather Forecast

Advertisements
Track Severe Weather on mobile